createdAt,value
2019-01-19T00:00:11.351Z,166.77
2019-01-19T00:01:30.011Z,165.37
2019-01-19T00:02:36.569Z,174.02
2019-01-19T00:03:55.126Z,175.42
2019-01-19T00:05:10.690Z,171.53
2019-01-19T00:06:21.539Z,171.72
2019-01-19T00:07:28.120Z,181.93
2019-01-19T00:08:34.461Z,179.68
2019-01-19T00:09:41.020Z,170.43
2019-01-19T00:10:47.580Z,181.75
2019-01-19T00:12:06.286Z,186.18
2019-01-19T00:13:30.773Z,182.55
2019-01-19T00:14:34.057Z,180.03
2019-01-19T00:15:49.549Z,187.60
2019-01-19T00:16:58.719Z,181.82
2019-01-19T00:18:07.821Z,169.95
2019-01-19T00:19:23.148Z,178.30
2019-01-19T00:20:53.860Z,175.68
2019-01-19T00:22:09.254Z,171.45
2019-01-19T00:23:21.524Z,182.95
2019-01-19T00:24:28.085Z,182.30
2019-01-19T00:25:46.007Z,181.93
2019-01-19T00:27:09.890Z,183.18
2019-01-19T00:28:38.831Z,184.18
2019-01-19T00:29:45.389Z,183.95
2019-01-19T00:31:18.023Z,198.82
2019-01-19T00:32:27.381Z,216.85
2019-01-19T00:33:36.681Z,203.50
2019-01-19T00:34:54.638Z,203.62
2019-01-19T00:36:15.816Z,198.07
2019-01-19T00:37:22.415Z,185.48
2019-01-19T00:38:46.565Z,173.90
2019-01-19T00:40:23.379Z,162.88
2019-01-19T00:41:51.241Z,174.65
2019-01-19T00:42:57.212Z,178.45
2019-01-19T00:44:22.611Z,179.23
2019-01-19T00:45:55.301Z,184.57
2019-01-19T00:47:01.863Z,185.28
2019-01-19T00:48:28.981Z,189.60
2019-01-19T00:49:33.067Z,193.10
2019-01-19T00:50:54.828Z,185.30
2019-01-19T00:52:13.514Z,179.05
2019-01-19T00:53:22.531Z,162.47
2019-01-19T00:54:29.129Z,158.20
2019-01-19T00:55:38.396Z,157.37
2019-01-19T00:56:47.738Z,153.53
2019-01-19T00:57:54.302Z,153.32
2019-01-19T00:59:00.928Z,148.02
2019-01-19T01:00:10.233Z,155.32
2019-01-19T01:01:25.458Z,157.05
2019-01-19T01:02:32.086Z,153.02
2019-01-19T01:03:41.452Z,149.20
2019-01-19T01:04:48.018Z,157.88
2019-01-19T01:06:06.612Z,154.68
2019-01-19T01:07:13.169Z,164.77
2019-01-19T01:08:28.766Z,159.80
2019-01-19T01:09:50.416Z,168.35
2019-01-19T01:10:56.976Z,181.00
2019-01-19T01:12:23.333Z,177.12
2019-01-19T01:13:47.965Z,182.43
2019-01-19T01:15:00.710Z,178.53
2019-01-19T01:16:07.591Z,189.80
2019-01-19T01:17:14.151Z,182.57
2019-01-19T01:18:29.826Z,172.78
2019-01-19T01:19:57.361Z,174.82
2019-01-19T01:21:38.954Z,165.97
2019-01-19T01:22:51.258Z,169.28
2019-01-19T01:23:57.863Z,174.32
2019-01-19T01:25:07.118Z,171.18
2019-01-19T01:26:29.103Z,177.82
2019-01-19T01:27:44.309Z,166.92
2019-01-19T01:29:22.555Z,172.78
2019-01-19T01:30:47.175Z,195.07
2019-01-19T01:32:05.707Z,196.93
2019-01-19T01:33:31.993Z,196.87
2019-01-19T01:35:07.343Z,188.45
2019-01-19T01:36:25.307Z,169.10
2019-01-19T01:37:37.906Z,165.30
2019-01-19T01:38:47.510Z,158.37
2019-01-19T01:40:11.062Z,160.55
2019-01-19T01:41:26.427Z,161.85
2019-01-19T01:42:52.666Z,153.80
2019-01-19T01:44:05.135Z,153.70
2019-01-19T01:45:11.686Z,159.22
2019-01-19T01:46:23.855Z,160.05
2019-01-19T01:47:50.152Z,149.38
2019-01-19T01:49:14.669Z,154.90
2019-01-19T01:50:24.145Z,140.55
2019-01-19T01:51:42.138Z,143.93
2019-01-19T01:53:08.324Z,139.30
2019-01-19T01:54:26.903Z,150.95
2019-01-19T01:55:33.538Z,169.87
2019-01-19T01:56:36.833Z,187.70
2019-01-19T01:57:42.974Z,233.53
2019-01-19T01:58:55.278Z,216.65
2019-01-19T02:00:13.865Z,265.05
2019-01-19T02:01:26.050Z,266.57
2019-01-19T02:02:35.581Z,176.75
2019-01-19T02:03:44.954Z,232.60
2019-01-19T02:05:11.138Z,225.13
2019-01-19T02:06:26.586Z,239.90
2019-01-19T02:07:41.767Z,181.80
2019-01-19T02:09:11.260Z,131.32
2019-01-19T02:10:26.841Z,120.92
2019-01-19T02:11:33.384Z,132.00
2019-01-19T02:12:46.201Z,123.82
2019-01-19T02:13:52.759Z,130.30
2019-01-19T02:15:14.418Z,122.90
2019-01-19T02:16:37.606Z,117.03
2019-01-19T02:18:13.940Z,123.18
2019-01-19T02:19:26.448Z,122.60
2019-01-19T02:20:35.526Z,120.90
2019-01-19T02:21:57.175Z,127.20
2019-01-19T02:23:03.738Z,119.47
2019-01-19T02:24:25.542Z,118.20
2019-01-19T02:25:34.982Z,123.75
2019-01-19T02:27:10.163Z,121.07
2019-01-19T02:28:28.560Z,123.50
2019-01-19T02:29:41.006Z,119.08
2019-01-19T02:31:06.049Z,122.17
2019-01-19T02:32:18.149Z,121.10
2019-01-19T02:33:36.288Z,125.85
2019-01-19T02:34:42.883Z,120.65
2019-01-19T02:36:15.379Z,123.90
2019-01-19T02:37:33.681Z,127.07
2019-01-19T02:38:55.080Z,126.67
2019-01-19T02:40:16.542Z,121.60
2019-01-19T02:41:41.246Z,123.50
2019-01-19T02:43:07.288Z,131.35
2019-01-19T02:44:25.637Z,124.75
2019-01-19T02:46:02.489Z,133.55
2019-01-19T02:47:14.752Z,139.43
2019-01-19T02:48:40.801Z,139.07
2019-01-19T02:49:51.301Z,152.90
2019-01-19T02:50:57.862Z,143.15
2019-01-19T02:52:19.491Z,148.13
2019-01-19T02:53:28.904Z,136.30
2019-01-19T02:54:49.926Z,142.85
2019-01-19T02:56:02.189Z,136.57
2019-01-19T02:57:11.682Z,149.20
2019-01-19T02:58:42.829Z,144.70
2019-01-19T02:59:52.328Z,142.05
2019-01-19T03:01:30.562Z,148.22
2019-01-19T03:02:40.039Z,140.05
2019-01-19T03:03:49.227Z,153.23
2019-01-19T03:05:01.489Z,145.12
2019-01-19T03:06:08.040Z,151.80
2019-01-19T03:07:20.474Z,151.60
2019-01-19T03:08:35.704Z,156.45
2019-01-19T03:09:50.043Z,161.07
2019-01-19T03:10:56.703Z,167.93
2019-01-19T03:12:03.695Z,173.62
2019-01-19T03:13:36.978Z,181.05
2019-01-19T03:14:58.368Z,172.80
2019-01-19T03:16:19.859Z,172.60
2019-01-19T03:17:48.879Z,167.10
2019-01-19T03:19:22.553Z,176.87
2019-01-19T03:20:34.771Z,183.97
2019-01-19T03:21:59.093Z,165.68
2019-01-19T03:23:20.766Z,177.45
2019-01-19T03:24:36.255Z,174.65
2019-01-19T03:25:42.814Z,177.90
2019-01-19T03:27:00.628Z,170.02
2019-01-19T03:28:12.924Z,173.00
2019-01-19T03:29:25.663Z,169.82
2019-01-19T03:30:44.261Z,160.00
2019-01-19T03:31:50.812Z,146.00
2019-01-19T03:33:19.998Z,133.10
2019-01-19T03:35:01.508Z,139.72
2019-01-19T03:36:23.163Z,131.65
2019-01-19T03:37:44.996Z,132.27
2019-01-19T03:39:05.334Z,135.35
2019-01-19T03:40:20.596Z,129.80
2019-01-19T03:41:33.477Z,131.22
2019-01-19T03:43:08.251Z,127.17
2019-01-19T03:44:32.578Z,124.92
2019-01-19T03:45:48.207Z,130.07
2019-01-19T03:47:09.945Z,130.37
2019-01-19T03:48:24.641Z,132.03
2019-01-19T03:49:33.982Z,140.07
2019-01-19T03:50:56.979Z,131.05
2019-01-19T03:52:19.982Z,154.25
2019-01-19T03:53:29.665Z,129.05
2019-01-19T03:54:54.271Z,139.43
2019-01-19T03:56:12.729Z,133.32
2019-01-19T03:57:41.867Z,131.27
2019-01-19T03:58:54.560Z,134.40
2019-01-19T04:00:17.380Z,135.57
2019-01-19T04:01:32.529Z,134.43
2019-01-19T04:02:45.077Z,139.70
2019-01-19T04:03:51.660Z,132.25
2019-01-19T04:05:15.223Z,128.23
2019-01-19T04:06:27.382Z,125.30
2019-01-19T04:07:43.051Z,128.30
2019-01-19T04:08:59.237Z,133.60
2019-01-19T04:10:05.796Z,133.35
2019-01-19T04:11:24.447Z,125.45
2019-01-19T04:12:36.984Z,132.20
2019-01-19T04:13:43.540Z,128.02
2019-01-19T04:14:53.254Z,130.52
2019-01-19T04:16:02.586Z,132.52
2019-01-19T04:17:09.142Z,133.32
2019-01-19T04:18:24.668Z,127.60
2019-01-19T04:19:37.163Z,129.42
2019-01-19T04:21:04.680Z,145.92
2019-01-19T04:22:13.987Z,149.00
2019-01-19T04:23:17.690Z,139.43
2019-01-19T04:24:26.887Z,135.12
2019-01-19T04:25:42.580Z,130.97
2019-01-19T04:26:46.419Z,139.20
2019-01-19T04:27:49.720Z,122.15
2019-01-19T04:28:53.289Z,134.00
2019-01-19T04:29:56.591Z,137.72
2019-01-19T04:30:59.980Z,137.40
2019-01-19T04:32:03.458Z,132.90
2019-01-19T04:33:06.745Z,144.40
2019-01-19T04:34:10.106Z,135.45
2019-01-19T04:35:13.403Z,130.78
2019-01-19T04:36:21.628Z,135.05
2019-01-19T04:37:21.989Z,136.88
2019-01-19T04:38:25.672Z,138.80
2019-01-19T04:39:29.333Z,139.12
2019-01-19T04:40:32.653Z,136.62
2019-01-19T04:41:35.936Z,132.10
2019-01-19T04:42:40.539Z,138.37
2019-01-19T04:43:43.845Z,137.18
2019-01-19T04:44:47.140Z,142.55
2019-01-19T04:45:50.426Z,140.03
2019-01-19T04:46:53.799Z,142.87
2019-01-19T04:47:57.136Z,144.40
2019-01-19T04:49:00.486Z,145.50
2019-01-19T04:50:04.343Z,140.75
2019-01-19T04:51:07.630Z,139.77
2019-01-19T04:52:10.914Z,139.40
2019-01-19T04:53:14.257Z,147.32
2019-01-19T04:54:17.557Z,148.55
2019-01-19T04:55:20.875Z,146.70
2019-01-19T04:56:24.171Z,154.85
2019-01-19T04:57:27.459Z,147.28
2019-01-19T04:58:30.750Z,156.15
2019-01-19T04:59:34.036Z,162.40
2019-01-19T05:00:37.359Z,149.57
2019-01-19T05:01:40.650Z,156.20
2019-01-19T05:02:43.963Z,155.12
2019-01-19T05:03:47.406Z,153.75
2019-01-19T05:04:50.799Z,156.78
2019-01-19T05:05:54.137Z,138.55
2019-01-19T05:06:57.433Z,150.12
2019-01-19T05:08:00.724Z,153.10
2019-01-19T05:09:06.598Z,154.12
2019-01-19T05:10:11.727Z,161.68
2019-01-19T05:11:15.419Z,158.35
2019-01-19T05:12:18.781Z,166.15
2019-01-19T05:13:22.075Z,156.63
2019-01-19T05:14:25.431Z,160.03
2019-01-19T05:15:28.716Z,155.10
2019-01-19T05:16:32.015Z,153.15
2019-01-19T05:17:35.479Z,153.62
2019-01-19T05:18:38.778Z,147.32
2019-01-19T05:19:42.084Z,151.68
2019-01-19T05:20:45.371Z,156.95
2019-01-19T05:21:48.697Z,157.45
2019-01-19T05:22:51.978Z,148.50
2019-01-19T05:23:55.442Z,149.10
2019-01-19T05:24:58.861Z,155.37
2019-01-19T05:26:02.210Z,144.85
2019-01-19T05:27:05.569Z,145.60
2019-01-19T05:28:08.935Z,144.43
2019-01-19T05:29:12.230Z,148.53
2019-01-19T05:30:17.664Z,151.85
2019-01-19T05:31:20.958Z,149.38
2019-01-19T05:32:24.747Z,157.93
2019-01-19T05:33:28.076Z,164.10
2019-01-19T05:34:31.367Z,155.85
2019-01-19T05:35:34.659Z,150.97
2019-01-19T05:36:38.616Z,146.15
2019-01-19T05:37:42.111Z,140.60
2019-01-19T05:38:45.434Z,147.28
2019-01-19T05:39:48.728Z,141.97
2019-01-19T05:40:52.026Z,139.50
2019-01-19T05:41:55.316Z,142.75
2019-01-19T05:42:58.634Z,144.22
2019-01-19T05:44:01.962Z,142.10
2019-01-19T05:45:07.883Z,150.47
2019-01-19T05:46:11.185Z,154.00
2019-01-19T05:47:14.575Z,148.97
2019-01-19T05:48:17.975Z,152.22
2019-01-19T05:49:21.298Z,149.47
2019-01-19T05:50:24.593Z,158.50
2019-01-19T05:51:27.893Z,152.62
2019-01-19T05:52:31.340Z,154.07
2019-01-19T05:53:34.635Z,157.78
2019-01-19T05:54:38.020Z,158.37
2019-01-19T05:55:41.399Z,166.62
2019-01-19T05:56:44.749Z,168.10
2019-01-19T05:57:48.047Z,163.47
2019-01-19T05:58:51.334Z,160.05
2019-01-19T05:59:54.662Z,171.40
2019-01-19T06:00:58.350Z,166.82
2019-01-19T06:02:01.720Z,162.05
2019-01-19T06:03:05.054Z,164.67
2019-01-19T06:04:08.375Z,174.70
2019-01-19T06:05:11.703Z,174.20
2019-01-19T06:06:15.171Z,171.93
2019-01-19T06:07:18.504Z,179.12
2019-01-19T06:08:21.803Z,186.77
2019-01-19T06:09:25.099Z,178.32
2019-01-19T06:10:28.435Z,169.10
2019-01-19T06:11:31.821Z,168.28
2019-01-19T06:12:35.109Z,162.97
2019-01-19T06:13:38.393Z,157.03
2019-01-19T06:14:41.682Z,160.40
2019-01-19T06:15:45.015Z,164.55
2019-01-19T06:16:48.305Z,161.52
2019-01-19T06:17:51.596Z,162.82
2019-01-19T06:18:55.154Z,156.95
2019-01-19T06:19:58.520Z,160.28
2019-01-19T06:21:02.301Z,150.32
2019-01-19T06:22:05.960Z,151.02
2019-01-19T06:23:09.244Z,155.65
2019-01-19T06:24:12.550Z,142.90
2019-01-19T06:25:16.548Z,129.65
2019-01-19T06:26:19.859Z,137.05
2019-01-19T06:27:23.145Z,125.92
2019-01-19T06:28:26.443Z,122.58
2019-01-19T06:29:29.730Z,135.43
2019-01-19T06:30:33.031Z,122.33
2019-01-19T06:31:36.362Z,128.95
2019-01-19T06:32:39.721Z,187.12
2019-01-19T06:33:43.086Z,187.40
2019-01-19T06:34:46.472Z,212.72
2019-01-19T06:35:49.781Z,206.50
2019-01-19T06:36:55.049Z,204.65
2019-01-19T06:37:58.172Z,218.42
2019-01-19T06:39:01.520Z,215.30
2019-01-19T06:40:10.993Z,211.25
2019-01-19T06:41:14.345Z,212.57
2019-01-19T06:42:17.757Z,210.43
2019-01-19T06:43:21.039Z,208.90
2019-01-19T06:44:24.332Z,209.20
2019-01-19T06:45:27.627Z,234.25
2019-01-19T06:46:30.916Z,202.95
2019-01-19T06:47:34.241Z,222.30
2019-01-19T06:48:37.601Z,189.70
2019-01-19T06:49:40.885Z,190.28
2019-01-19T06:50:44.191Z,203.85
2019-01-19T06:51:47.491Z,192.35
2019-01-19T06:52:50.806Z,195.07
2019-01-19T06:54:01.518Z,164.80
2019-01-19T06:55:00.591Z,158.55
2019-01-19T06:56:04.254Z,180.87
2019-01-19T06:57:07.682Z,185.88
2019-01-19T06:58:11.092Z,188.52
2019-01-19T06:59:17.459Z,206.00
2019-01-19T07:00:19.483Z,231.63
2019-01-19T07:01:22.779Z,198.47
2019-01-19T07:02:26.154Z,212.55
2019-01-19T07:03:29.476Z,204.53
2019-01-19T07:04:32.772Z,200.05
2019-01-19T07:05:36.061Z,196.12
2019-01-19T07:06:39.436Z,195.55
2019-01-19T07:07:42.789Z,189.70
2019-01-19T07:08:46.191Z,191.53
2019-01-19T07:09:49.488Z,198.85
2019-01-19T07:10:52.788Z,203.92
2019-01-19T07:11:58.745Z,222.48
2019-01-19T07:13:02.067Z,222.52
2019-01-19T07:14:05.402Z,222.75
2019-01-19T07:15:10.807Z,206.50
2019-01-19T07:16:14.150Z,209.92
2019-01-19T07:17:17.805Z,206.68
2019-01-19T07:18:21.097Z,195.68
2019-01-19T07:19:26.051Z,182.37
2019-01-19T07:20:30.959Z,172.47
2019-01-19T07:21:34.550Z,176.30
2019-01-19T07:22:37.837Z,180.87
2019-01-19T07:23:41.120Z,185.32
2019-01-19T07:24:46.836Z,174.75
2019-01-19T07:25:51.407Z,159.40
2019-01-19T07:26:58.716Z,172.70
2019-01-19T07:28:01.946Z,171.57
2019-01-19T07:29:05.309Z,185.67
2019-01-19T07:30:16.281Z,209.18
2019-01-19T07:31:19.593Z,238.72
2019-01-19T07:32:24.503Z,250.85
2019-01-19T07:33:29.427Z,277.55
2019-01-19T07:34:35.985Z,258.43
2019-01-19T07:35:41.039Z,294.60
2019-01-19T07:36:45.970Z,283.05
2019-01-19T07:37:50.913Z,277.85
2019-01-19T07:38:54.268Z,268.95
2019-01-19T07:39:57.627Z,239.80
2019-01-19T07:41:00.952Z,236.35
2019-01-19T07:42:04.254Z,232.83
2019-01-19T07:43:08.512Z,221.95
2019-01-19T07:44:11.801Z,226.73
2019-01-19T07:45:15.791Z,233.85
2019-01-19T07:46:19.341Z,220.05
2019-01-19T07:47:24.589Z,216.15
2019-01-19T07:48:27.974Z,221.53
2019-01-19T07:49:34.454Z,206.32
2019-01-19T07:50:37.744Z,208.10
2019-01-19T07:51:43.436Z,214.85
2019-01-19T07:52:46.802Z,209.47
2019-01-19T07:53:50.164Z,220.10
2019-01-19T07:54:56.454Z,206.50
2019-01-19T07:55:59.773Z,225.57
2019-01-19T07:57:03.100Z,228.25
2019-01-19T07:58:06.449Z,230.50
2019-01-19T07:59:09.765Z,232.32
2019-01-19T08:00:21.912Z,243.97
2019-01-19T08:01:25.482Z,232.67
2019-01-19T08:02:28.940Z,254.35
2019-01-19T08:03:32.348Z,279.60
2019-01-19T08:04:35.702Z,245.40
2019-01-19T08:05:39.061Z,227.85
2019-01-19T08:06:42.451Z,204.65
2019-01-19T08:07:45.893Z,201.77
2019-01-19T08:08:51.038Z,219.07
2019-01-19T08:09:54.386Z,195.55
2019-01-19T08:10:57.772Z,184.18
2019-01-19T08:12:01.056Z,178.10
2019-01-19T08:13:04.388Z,179.35
2019-01-19T08:14:07.721Z,188.87
2019-01-19T08:15:14.356Z,186.12
2019-01-19T08:16:17.814Z,187.12
2019-01-19T08:17:21.172Z,190.92
2019-01-19T08:18:26.662Z,186.80
2019-01-19T08:19:29.957Z,178.80
2019-01-19T08:20:33.318Z,182.97
2019-01-19T08:21:38.133Z,196.28
2019-01-19T08:22:41.396Z,206.97
2019-01-19T08:23:44.725Z,197.43
2019-01-19T08:24:48.084Z,179.32
2019-01-19T08:25:51.454Z,176.68
2019-01-19T08:26:54.810Z,188.00
2019-01-19T08:27:58.132Z,206.28
2019-01-19T08:29:01.559Z,214.12
2019-01-19T08:30:14.119Z,192.90
2019-01-19T08:31:19.074Z,194.35
2019-01-19T08:32:22.455Z,193.60
2019-01-19T08:33:25.749Z,203.07
2019-01-19T08:34:29.271Z,199.65
2019-01-19T08:35:33.019Z,195.20
2019-01-19T08:36:36.314Z,196.37
2019-01-19T08:37:39.603Z,190.30
2019-01-19T08:38:44.674Z,195.00
2019-01-19T08:39:48.393Z,187.88
2019-01-19T08:40:51.699Z,214.72
2019-01-19T08:41:55.027Z,207.50
2019-01-19T08:43:02.699Z,203.15
2019-01-19T08:44:06.043Z,246.85
2019-01-19T08:45:10.894Z,209.12
2019-01-19T08:46:14.596Z,193.60
2019-01-19T08:47:20.080Z,177.35
2019-01-19T08:48:26.020Z,189.22
2019-01-19T08:49:29.396Z,192.77
2019-01-19T08:50:32.726Z,203.18
2019-01-19T08:51:36.040Z,193.60
2019-01-19T08:52:39.341Z,169.47
2019-01-19T08:53:42.637Z,173.60
2019-01-19T08:54:46.003Z,170.55
2019-01-19T08:55:49.368Z,178.93
2019-01-19T08:56:52.673Z,161.47
2019-01-19T08:57:56.000Z,170.10
2019-01-19T08:58:59.299Z,184.35
2019-01-19T09:00:02.778Z,178.95
2019-01-19T09:01:06.105Z,191.98
2019-01-19T09:02:09.548Z,180.20
2019-01-19T09:03:12.883Z,158.85
2019-01-19T09:04:16.272Z,161.65
2019-01-19T09:05:19.830Z,153.35
2019-01-19T09:06:23.153Z,144.02
2019-01-19T09:07:33.493Z,142.03
2019-01-19T09:08:31.867Z,154.60
2019-01-19T09:09:35.307Z,149.90
2019-01-19T09:10:38.607Z,149.57
2019-01-19T09:11:41.939Z,143.95
2019-01-19T09:12:45.296Z,151.30
2019-01-19T09:13:48.581Z,149.40
2019-01-19T09:14:51.891Z,144.32
2019-01-19T09:15:56.460Z,139.75
2019-01-19T09:16:59.770Z,134.07
2019-01-19T09:18:03.125Z,132.20
2019-01-19T09:19:06.575Z,123.58
2019-01-19T09:20:14.342Z,124.97
2019-01-19T09:21:19.262Z,144.20
2019-01-19T09:22:22.820Z,137.63
2019-01-19T09:23:27.837Z,147.70
2019-01-19T09:24:31.480Z,137.50
2019-01-19T09:25:38.415Z,143.22
2019-01-19T09:26:44.058Z,136.32
2019-01-19T09:27:49.478Z,137.25
2019-01-19T09:28:53.527Z,142.62
2019-01-19T09:29:57.424Z,149.80
2019-01-19T09:31:03.274Z,149.03
2019-01-19T09:32:06.823Z,152.22
2019-01-19T09:33:10.270Z,158.80
2019-01-19T09:34:13.575Z,149.90
2019-01-19T09:35:17.141Z,156.12
2019-01-19T09:36:20.479Z,160.07
2019-01-19T09:37:23.774Z,154.50
2019-01-19T09:38:30.575Z,148.90
2019-01-19T09:39:33.868Z,156.00
2019-01-19T09:40:37.279Z,161.47
2019-01-19T09:41:45.031Z,152.20
2019-01-19T09:42:48.501Z,167.20
2019-01-19T09:43:51.840Z,179.85
2019-01-19T09:44:57.422Z,173.00
2019-01-19T09:46:00.689Z,161.57
2019-01-19T09:47:04.062Z,169.32
2019-01-19T09:48:07.440Z,173.57
2019-01-19T09:49:10.763Z,171.95
2019-01-19T09:50:18.452Z,156.50
2019-01-19T09:51:21.747Z,152.27
2019-01-19T09:52:25.166Z,152.27
2019-01-19T09:53:28.893Z,149.02
2019-01-19T09:54:32.227Z,152.05
2019-01-19T09:55:35.523Z,139.60
2019-01-19T09:56:38.918Z,139.15
2019-01-19T09:57:42.341Z,148.97
2019-01-19T09:58:45.631Z,150.10
2019-01-19T09:59:48.969Z,142.18
2019-01-19T10:00:52.401Z,138.10
2019-01-19T10:01:55.692Z,149.90
2019-01-19T10:02:58.987Z,144.37
2019-01-19T10:04:02.355Z,146.02
2019-01-19T10:05:08.952Z,144.60
2019-01-19T10:06:12.251Z,157.10
2019-01-19T10:07:15.651Z,159.60
2019-01-19T10:08:20.574Z,155.93
2019-01-19T10:09:25.655Z,157.73
2019-01-19T10:10:28.933Z,153.30
2019-01-19T10:11:32.644Z,155.97
2019-01-19T10:12:35.975Z,156.33
2019-01-19T10:13:39.331Z,140.87
2019-01-19T10:14:42.703Z,154.57
2019-01-19T10:15:46.117Z,160.60
2019-01-19T10:16:49.467Z,167.50
2019-01-19T10:17:52.851Z,169.37
2019-01-19T10:18:56.241Z,154.07
2019-01-19T10:19:59.729Z,154.97
2019-01-19T10:21:03.198Z,188.15
2019-01-19T10:22:08.312Z,170.10
2019-01-19T10:23:11.773Z,173.47
2019-01-19T10:24:15.035Z,159.50
2019-01-19T10:25:18.325Z,153.45
2019-01-19T10:26:21.658Z,165.33
2019-01-19T10:27:24.942Z,165.53
2019-01-19T10:28:28.235Z,168.40
2019-01-19T10:29:31.610Z,166.00
2019-01-19T10:30:34.900Z,159.32
2019-01-19T10:31:38.227Z,166.73
2019-01-19T10:32:41.512Z,165.03
2019-01-19T10:33:44.829Z,162.50
2019-01-19T10:34:48.130Z,168.13
2019-01-19T10:35:51.446Z,158.55
2019-01-19T10:36:54.759Z,164.47
2019-01-19T10:37:58.125Z,167.55
2019-01-19T10:39:01.532Z,172.87
2019-01-19T10:40:08.100Z,164.52
2019-01-19T10:41:11.479Z,178.23
2019-01-19T10:42:14.865Z,173.23
2019-01-19T10:43:18.229Z,178.97
2019-01-19T10:44:21.678Z,177.43
2019-01-19T10:45:29.303Z,185.50
2019-01-19T10:46:32.645Z,176.13
2019-01-19T10:47:35.908Z,167.10
2019-01-19T10:48:39.206Z,170.15
2019-01-19T10:49:42.568Z,168.40
2019-01-19T10:50:46.278Z,161.60
2019-01-19T10:51:49.571Z,160.70
2019-01-19T10:52:52.890Z,158.93
2019-01-19T10:53:57.915Z,176.20
2019-01-19T10:55:01.762Z,198.70
2019-01-19T10:56:05.198Z,181.50
2019-01-19T10:57:08.503Z,180.97
2019-01-19T10:58:11.801Z,184.27
2019-01-19T10:59:15.172Z,179.53
2019-01-19T11:00:29.985Z,182.30
2019-01-19T11:01:33.345Z,183.03
2019-01-19T11:02:36.628Z,170.40
2019-01-19T11:03:40.075Z,175.77
2019-01-19T11:04:43.714Z,167.33
2019-01-19T11:05:47.002Z,173.60
2019-01-19T11:06:50.391Z,176.43
2019-01-19T11:07:54.004Z,194.77
2019-01-19T11:08:57.389Z,178.63
2019-01-19T11:10:00.817Z,180.00
2019-01-19T11:11:04.086Z,169.63
2019-01-19T11:12:07.369Z,176.07
2019-01-19T11:13:10.671Z,174.40
2019-01-19T11:14:14.005Z,174.67
2019-01-19T11:15:18.736Z,177.47
2019-01-19T11:16:23.864Z,175.70
2019-01-19T11:17:27.186Z,167.23
2019-01-19T11:18:30.471Z,178.50
2019-01-19T11:19:33.793Z,169.40
2019-01-19T11:20:37.079Z,175.17
2019-01-19T11:21:40.370Z,198.77
2019-01-19T11:22:43.680Z,182.20
2019-01-19T11:23:46.962Z,162.57
2019-01-19T11:24:50.354Z,166.33
2019-01-19T11:25:53.761Z,158.60
2019-01-19T11:26:57.053Z,155.90
2019-01-19T11:28:00.339Z,152.70
2019-01-19T11:29:03.702Z,183.47
2019-01-19T11:30:25.076Z,221.30
2019-01-19T11:31:28.372Z,181.33
2019-01-19T11:32:31.669Z,166.00
2019-01-19T11:33:34.962Z,174.43
2019-01-19T11:34:38.505Z,160.10
2019-01-19T11:35:41.881Z,170.17
2019-01-19T11:36:45.237Z,155.00
2019-01-19T11:37:48.664Z,152.37
2019-01-19T11:38:52.035Z,157.95
2019-01-19T11:39:55.465Z,156.27
2019-01-19T11:40:58.792Z,159.40
2019-01-19T11:42:02.068Z,146.40
2019-01-19T11:43:07.025Z,132.10
2019-01-19T11:44:10.358Z,139.87
2019-01-19T11:45:16.055Z,142.73
2019-01-19T11:46:19.511Z,139.97
2019-01-19T11:47:22.868Z,138.20
2019-01-19T11:48:26.149Z,135.63
2019-01-19T11:49:29.501Z,140.13
2019-01-19T11:50:32.781Z,139.73
2019-01-19T11:51:36.140Z,130.23
2019-01-19T11:52:39.435Z,135.40
2019-01-19T11:53:42.728Z,137.43
2019-01-19T11:54:46.696Z,136.13
2019-01-19T11:55:49.985Z,120.67
2019-01-19T11:56:53.353Z,135.90
2019-01-19T11:58:01.617Z,128.67
2019-01-19T11:59:04.943Z,144.37
2019-01-19T12:00:22.995Z,129.77
2019-01-19T12:01:26.317Z,137.47
2019-01-19T12:02:36.774Z,123.83
2019-01-19T12:03:34.753Z,133.73
2019-01-19T12:04:38.108Z,134.97
2019-01-19T12:05:41.539Z,133.03
2019-01-19T12:06:44.828Z,126.30
2019-01-19T12:07:48.160Z,115.07
2019-01-19T12:08:51.562Z,114.43
2019-01-19T12:09:55.121Z,115.60
2019-01-19T12:10:58.476Z,117.37
2019-01-19T12:12:01.771Z,122.97
2019-01-19T12:13:05.165Z,123.20
2019-01-19T12:14:08.453Z,133.43
2019-01-19T12:15:11.739Z,147.23
2019-01-19T12:16:19.247Z,138.40
2019-01-19T12:17:22.510Z,157.03
2019-01-19T12:18:25.974Z,135.17
2019-01-19T12:19:29.333Z,128.20
2019-01-19T12:20:35.640Z,131.53
2019-01-19T12:21:38.929Z,142.47
2019-01-19T12:22:42.210Z,166.13
2019-01-19T12:23:45.590Z,146.50
2019-01-19T12:24:48.957Z,195.53
2019-01-19T12:25:52.250Z,155.83
2019-01-19T12:26:55.536Z,129.70
2019-01-19T12:27:58.816Z,109.80
2019-01-19T12:29:02.152Z,113.07
2019-01-19T12:30:20.585Z,111.30
2019-01-19T12:31:23.960Z,106.63
2019-01-19T12:32:27.322Z,104.27
2019-01-19T12:33:30.614Z,100.50
2019-01-19T12:34:33.946Z,102.93
2019-01-19T12:35:37.266Z,108.63
2019-01-19T12:36:40.581Z,102.80
2019-01-19T12:37:43.870Z,108.03
2019-01-19T12:38:47.220Z,109.67
2019-01-19T12:39:50.544Z,105.03
2019-01-19T12:40:54.867Z,108.93
2019-01-19T12:41:58.154Z,105.33
2019-01-19T12:43:14.026Z,103.20
2019-01-19T12:44:17.385Z,109.50
2019-01-19T12:45:24.058Z,107.73
2019-01-19T12:46:27.373Z,107.83
2019-01-19T12:47:30.839Z,104.67
2019-01-19T12:48:34.127Z,103.00
2019-01-19T12:49:37.419Z,107.63
2019-01-19T12:50:40.988Z,104.90
2019-01-19T12:51:44.638Z,107.67
2019-01-19T12:52:47.988Z,105.57
2019-01-19T12:53:51.282Z,104.50
2019-01-19T12:54:54.565Z,113.13
2019-01-19T12:55:57.950Z,107.03
2019-01-19T12:57:01.288Z,103.47
2019-01-19T12:58:05.694Z,108.50
2019-01-19T12:59:08.982Z,117.47
2019-01-19T13:00:18.267Z,112.03
2019-01-19T13:01:21.587Z,124.17
2019-01-19T13:02:24.873Z,121.93
2019-01-19T13:03:28.196Z,129.00
2019-01-19T13:04:31.461Z,126.07
2019-01-19T13:05:43.991Z,124.83
2019-01-19T13:06:47.982Z,107.30
2019-01-19T13:07:52.144Z,101.80
2019-01-19T13:08:55.506Z,114.97
2019-01-19T13:09:58.934Z,103.87
2019-01-19T13:11:08.340Z,102.63
2019-01-19T13:12:14.936Z,101.60
2019-01-19T13:13:18.266Z,101.73
2019-01-19T13:14:21.622Z,100.03
2019-01-19T13:15:49.473Z,110.87
2019-01-19T13:17:04.444Z,106.40
2019-01-19T13:18:40.212Z,116.77
2019-01-19T13:19:49.817Z,116.77
2019-01-19T13:21:05.385Z,111.43
2019-01-19T13:22:34.717Z,109.73
2019-01-19T13:23:53.431Z,119.63
2019-01-19T13:25:08.748Z,128.33
2019-01-19T13:26:15.308Z,136.53
2019-01-19T13:27:33.020Z,129.47
2019-01-19T13:29:02.539Z,133.37
2019-01-19T13:30:24.369Z,307.53
2019-01-19T13:31:47.343Z,168.57
2019-01-19T13:33:09.390Z,183.60
2019-01-19T13:34:35.196Z,135.87
2019-01-19T13:35:44.547Z,128.27
2019-01-19T13:36:57.039Z,129.53
2019-01-19T13:38:29.434Z,134.97
2019-01-19T13:39:41.849Z,136.53
2019-01-19T13:40:57.056Z,142.37
2019-01-19T13:42:23.239Z,142.17
2019-01-19T13:43:46.208Z,140.90
2019-01-19T13:45:23.736Z,171.23
2019-01-19T13:46:38.934Z,171.60
2019-01-19T13:48:01.983Z,176.07
2019-01-19T13:49:25.046Z,118.70
2019-01-19T13:50:37.723Z,114.37
2019-01-19T13:51:46.866Z,100.03
2019-01-19T13:53:28.627Z,95.50
2019-01-19T13:54:38.048Z,89.90
2019-01-19T13:56:02.863Z,92.23
2019-01-19T13:57:21.373Z,112.67
2019-01-19T13:58:36.747Z,139.80
2019-01-19T14:00:05.047Z,109.83
2019-01-19T14:01:40.677Z,127.60
2019-01-19T14:02:50.175Z,97.93
2019-01-19T14:03:59.916Z,96.77
2019-01-19T14:05:12.368Z,84.27
2019-01-19T14:06:27.774Z,91.72
2019-01-19T14:07:37.275Z,95.03
2019-01-19T14:09:17.215Z,88.70
2019-01-19T14:10:23.993Z,86.27
2019-01-19T14:11:50.166Z,92.50
2019-01-19T14:13:02.781Z,93.57